sensor_id;sensor_type;location;lat;lon;timestamp;P1;durP1;ratioP1;P2;durP2;ratioP2
22490;SDS011;11412;50.802;4.350;2023-11-21T00:02:04;24.95;;;16.35;;
22490;SDS011;11412;50.802;4.350;2023-11-21T00:04:30;25.83;;;16.40;;
22490;SDS011;11412;50.802;4.350;2023-11-21T00:06:55;27.92;;;17.25;;
22490;SDS011;11412;50.802;4.350;2023-11-21T00:09:21;35.95;;;17.17;;
22490;SDS011;11412;50.802;4.350;2023-11-21T00:11:47;29.35;;;18.27;;
22490;SDS011;11412;50.802;4.350;2023-11-21T00:14:12;26.67;;;16.17;;
22490;SDS011;11412;50.802;4.350;2023-11-21T00:16:40;30.30;;;18.75;;
22490;SDS011;11412;50.802;4.350;2023-11-21T00:19:06;27.77;;;17.13;;
22490;SDS011;11412;50.802;4.350;2023-11-21T00:21:32;28.02;;;17.75;;
22490;SDS011;11412;50.802;4.350;2023-11-21T00:23:57;30.52;;;17.45;;
22490;SDS011;11412;50.802;4.350;2023-11-21T00:26:23;29.48;;;17.25;;
22490;SDS011;11412;50.802;4.350;2023-11-21T00:28:49;25.98;;;16.80;;
22490;SDS011;11412;50.802;4.350;2023-11-21T00:31:15;29.75;;;16.75;;
22490;SDS011;11412;50.802;4.350;2023-11-21T00:33:41;25.73;;;17.20;;
22490;SDS011;11412;50.802;4.350;2023-11-21T00:36:07;22.95;;;15.73;;
22490;SDS011;11412;50.802;4.350;2023-11-21T00:38:37;25.02;;;16.92;;
22490;SDS011;11412;50.802;4.350;2023-11-21T00:41:05;27.30;;;17.50;;
22490;SDS011;11412;50.802;4.350;2023-11-21T00:43:31;28.55;;;17.25;;
22490;SDS011;11412;50.802;4.350;2023-11-21T00:45:58;29.23;;;17.52;;
22490;SDS011;11412;50.802;4.350;2023-11-21T00:48:24;22.85;;;15.93;;
22490;SDS011;11412;50.802;4.350;2023-11-21T00:50:50;24.50;;;15.65;;
22490;SDS011;11412;50.802;4.350;2023-11-21T00:53:15;23.05;;;14.40;;
22490;SDS011;11412;50.802;4.350;2023-11-21T00:55:41;23.90;;;15.68;;
22490;SDS011;11412;50.802;4.350;2023-11-21T00:58:06;24.70;;;15.00;;
22490;SDS011;11412;50.802;4.350;2023-11-21T01:00:33;24.13;;;16.48;;
22490;SDS011;11412;50.802;4.350;2023-11-21T01:02:59;22.17;;;14.45;;
22490;SDS011;11412;50.802;4.350;2023-11-21T01:05:25;18.85;;;14.13;;
22490;SDS011;11412;50.802;4.350;2023-11-21T01:07:51;20.30;;;14.45;;
22490;SDS011;11412;50.802;4.350;2023-11-21T01:10:17;19.65;;;13.85;;
22490;SDS011;11412;50.802;4.350;2023-11-21T01:12:43;21.02;;;14.23;;
22490;SDS011;11412;50.802;4.350;2023-11-21T01:15:09;18.90;;;14.43;;
22490;SDS011;11412;50.802;4.350;2023-11-21T01:17:37;23.60;;;14.07;;
22490;SDS011;11412;50.802;4.350;2023-11-21T01:20:03;20.75;;;13.63;;
22490;SDS011;11412;50.802;4.350;2023-11-21T01:25:04;22.20;;;16.00;;
22490;SDS011;11412;50.802;4.350;2023-11-21T01:27:33;23.52;;;15.52;;
22490;SDS011;11412;50.802;4.350;2023-11-21T01:29:59;24.35;;;15.70;;
22490;SDS011;11412;50.802;4.350;2023-11-21T01:32:25;21.95;;;15.68;;
22490;SDS011;11412;50.802;4.350;2023-11-21T01:34:51;23.17;;;15.02;;
22490;SDS011;11412;50.802;4.350;2023-11-21T01:37:16;23.38;;;16.08;;
22490;SDS011;11412;50.802;4.350;2023-11-21T01:39:43;21.95;;;14.55;;
22490;SDS011;11412;50.802;4.350;2023-11-21T01:42:09;21.23;;;13.75;;
22490;SDS011;11412;50.802;4.350;2023-11-21T01:44:35;17.15;;;12.75;;
22490;SDS011;11412;50.802;4.350;2023-11-21T01:47:01;21.42;;;15.82;;
22490;SDS011;11412;50.802;4.350;2023-11-21T01:49:29;20.98;;;15.10;;
22490;SDS011;11412;50.802;4.350;2023-11-21T01:51:58;23.88;;;14.65;;
22490;SDS011;11412;50.802;4.350;2023-11-21T01:54:25;20.73;;;14.90;;
22490;SDS011;11412;50.802;4.350;2023-11-21T01:56:50;22.33;;;14.43;;
22490;SDS011;11412;50.802;4.350;2023-11-21T01:59:20;24.02;;;13.75;;
22490;SDS011;11412;50.802;4.350;2023-11-21T02:01:47;23.15;;;14.98;;
22490;SDS011;11412;50.802;4.350;2023-11-21T02:04:13;20.83;;;14.57;;
22490;SDS011;11412;50.802;4.350;2023-11-21T02:06:39;20.80;;;14.45;;
22490;SDS011;11412;50.802;4.350;2023-11-21T02:09:05;24.63;;;15.27;;
22490;SDS011;11412;50.802;4.350;2023-11-21T02:11:30;25.35;;;14.95;;
22490;SDS011;11412;50.802;4.350;2023-11-21T02:13:58;19.67;;;13.52;;
22490;SDS011;11412;50.802;4.350;2023-11-21T02:16:25;18.55;;;13.10;;
22490;SDS011;11412;50.802;4.350;2023-11-21T02:18:52;21.60;;;14.75;;
22490;SDS011;11412;50.802;4.350;2023-11-21T02:21:18;23.27;;;15.73;;
22490;SDS011;11412;50.802;4.350;2023-11-21T02:23:44;24.58;;;15.85;;
22490;SDS011;11412;50.802;4.350;2023-11-21T02:26:12;24.23;;;16.85;;
22490;SDS011;11412;50.802;4.350;2023-11-21T02:28:38;21.08;;;14.32;;
22490;SDS011;11412;50.802;4.350;2023-11-21T02:31:05;23.55;;;15.88;;
22490;SDS011;11412;50.802;4.350;2023-11-21T02:33:32;22.92;;;15.60;;
22490;SDS011;11412;50.802;4.350;2023-11-21T02:35:59;22.88;;;15.55;;
22490;SDS011;11412;50.802;4.350;2023-11-21T02:38:25;24.48;;;15.95;;
22490;SDS011;11412;50.802;4.350;2023-11-21T02:40:51;24.27;;;16.42;;
22490;SDS011;11412;50.802;4.350;2023-11-21T02:43:17;26.35;;;15.80;;
22490;SDS011;11412;50.802;4.350;2023-11-21T02:45:42;25.60;;;16.48;;
22490;SDS011;11412;50.802;4.350;2023-11-21T02:48:08;25.08;;;16.45;;
22490;SDS011;11412;50.802;4.350;2023-11-21T02:50:34;23.50;;;15.85;;
22490;SDS011;11412;50.802;4.350;2023-11-21T02:53:00;25.17;;;16.70;;
22490;SDS011;11412;50.802;4.350;2023-11-21T02:55:26;28.58;;;17.02;;
22490;SDS011;11412;50.802;4.350;2023-11-21T02:57:52;26.15;;;16.98;;
22490;SDS011;11412;50.802;4.350;2023-11-21T03:00:18;24.98;;;16.55;;
22490;SDS011;11412;50.802;4.350;2023-11-21T03:02:44;22.48;;;15.77;;
22490;SDS011;11412;50.802;4.350;2023-11-21T03:05:10;24.80;;;16.23;;
22490;SDS011;11412;50.802;4.350;2023-11-21T03:07:38;23.52;;;15.43;;
22490;SDS011;11412;50.802;4.350;2023-11-21T03:10:05;26.23;;;16.35;;
22490;SDS011;11412;50.802;4.350;2023-11-21T03:12:34;22.00;;;16.08;;
22490;SDS011;11412;50.802;4.350;2023-11-21T03:14:59;20.08;;;14.90;;
22490;SDS011;11412;50.802;4.350;2023-11-21T03:17:26;22.60;;;15.98;;
22490;SDS011;11412;50.802;4.350;2023-11-21T03:19:54;22.80;;;16.02;;
22490;SDS011;11412;50.802;4.350;2023-11-21T03:22:19;23.85;;;15.93;;
22490;SDS011;11412;50.802;4.350;2023-11-21T03:24:45;24.42;;;15.68;;
22490;SDS011;11412;50.802;4.350;2023-11-21T03:27:11;26.63;;;16.52;;
22490;SDS011;11412;50.802;4.350;2023-11-21T03:29:37;23.10;;;15.18;;
22490;SDS011;11412;50.802;4.350;2023-11-21T03:32:03;29.45;;;16.17;;
22490;SDS011;11412;50.802;4.350;2023-11-21T03:34:29;21.67;;;15.30;;
22490;SDS011;11412;50.802;4.350;2023-11-21T03:36:55;23.52;;;15.77;;
22490;SDS011;11412;50.802;4.350;2023-11-21T03:39:20;23.40;;;16.08;;
22490;SDS011;11412;50.802;4.350;2023-11-21T03:41:47;24.65;;;16.63;;
22490;SDS011;11412;50.802;4.350;2023-11-21T03:44:13;24.65;;;16.23;;
22490;SDS011;11412;50.802;4.350;2023-11-21T03:46:39;23.73;;;15.95;;
22490;SDS011;11412;50.802;4.350;2023-11-21T03:49:05;22.58;;;15.48;;
22490;SDS011;11412;50.802;4.350;2023-11-21T03:51:32;22.50;;;15.93;;
22490;SDS011;11412;50.802;4.350;2023-11-21T03:53:59;25.15;;;17.40;;
22490;SDS011;11412;50.802;4.350;2023-11-21T03:56:24;27.48;;;16.20;;
22490;SDS011;11412;50.802;4.350;2023-11-21T03:58:50;24.58;;;15.05;;
22490;SDS011;11412;50.802;4.350;2023-11-21T04:01:22;25.83;;;16.70;;
22490;SDS011;11412;50.802;4.350;2023-11-21T04:03:51;23.30;;;15.55;;
22490;SDS011;11412;50.802;4.350;2023-11-21T04:06:17;23.95;;;15.98;;
22490;SDS011;11412;50.802;4.350;2023-11-21T04:08:44;22.27;;;15.18;;
22490;SDS011;11412;50.802;4.350;2023-11-21T04:11:10;23.98;;;16.60;;
22490;SDS011;11412;50.802;4.350;2023-11-21T04:13:39;25.27;;;16.70;;
22490;SDS011;11412;50.802;4.350;2023-11-21T04:16:06;24.77;;;15.45;;
22490;SDS011;11412;50.802;4.350;2023-11-21T04:18:33;20.88;;;14.40;;
22490;SDS011;11412;50.802;4.350;2023-11-21T04:21:00;24.08;;;15.63;;
22490;SDS011;11412;50.802;4.350;2023-11-21T04:23:25;25.83;;;16.35;;
22490;SDS011;11412;50.802;4.350;2023-11-21T04:25:52;24.38;;;16.75;;
22490;SDS011;11412;50.802;4.350;2023-11-21T04:28:19;21.13;;;15.38;;
22490;SDS011;11412;50.802;4.350;2023-11-21T04:30:45;21.98;;;16.15;;
22490;SDS011;11412;50.802;4.350;2023-11-21T04:33:10;21.90;;;15.57;;
22490;SDS011;11412;50.802;4.350;2023-11-21T04:35:36;24.13;;;16.20;;
22490;SDS011;11412;50.802;4.350;2023-11-21T04:38:01;23.13;;;15.65;;
22490;SDS011;11412;50.802;4.350;2023-11-21T04:40:27;23.00;;;15.73;;
22490;SDS011;11412;50.802;4.350;2023-11-21T04:42:53;27.05;;;16.55;;
22490;SDS011;11412;50.802;4.350;2023-11-21T04:45:19;24.98;;;16.25;;
22490;SDS011;11412;50.802;4.350;2023-11-21T04:47:44;21.13;;;15.50;;
22490;SDS011;11412;50.802;4.350;2023-11-21T04:50:10;25.92;;;16.33;;
22490;SDS011;11412;50.802;4.350;2023-11-21T04:52:36;23.17;;;16.42;;
22490;SDS011;11412;50.802;4.350;2023-11-21T04:55:01;21.42;;;15.13;;
22490;SDS011;11412;50.802;4.350;2023-11-21T04:57:27;25.63;;;16.33;;
22490;SDS011;11412;50.802;4.350;2023-11-21T04:59:56;25.77;;;16.75;;
22490;SDS011;11412;50.802;4.350;2023-11-21T05:02:22;21.85;;;15.65;;
22490;SDS011;11412;50.802;4.350;2023-11-21T05:04:47;23.27;;;16.08;;
22490;SDS011;11412;50.802;4.350;2023-11-21T05:07:13;25.77;;;15.40;;
22490;SDS011;11412;50.802;4.350;2023-11-21T05:09:42;22.95;;;16.40;;
22490;SDS011;11412;50.802;4.350;2023-11-21T05:12:14;21.30;;;16.00;;
22490;SDS011;11412;50.802;4.350;2023-11-21T05:14:40;23.75;;;16.65;;
22490;SDS011;11412;50.802;4.350;2023-11-21T05:17:06;24.83;;;15.70;;
22490;SDS011;11412;50.802;4.350;2023-11-21T05:19:33;20.27;;;15.32;;
22490;SDS011;11412;50.802;4.350;2023-11-21T05:22:00;25.20;;;15.98;;
22490;SDS011;11412;50.802;4.350;2023-11-21T05:24:26;24.67;;;15.55;;
22490;SDS011;11412;50.802;4.350;2023-11-21T05:26:52;24.27;;;15.50;;
22490;SDS011;11412;50.802;4.350;2023-11-21T05:29:18;21.77;;;15.90;;
22490;SDS011;11412;50.802;4.350;2023-11-21T05:31:43;21.75;;;14.98;;
22490;SDS011;11412;50.802;4.350;2023-11-21T05:34:09;25.98;;;16.38;;
22490;SDS011;11412;50.802;4.350;2023-11-21T05:36:34;20.88;;;15.52;;
22490;SDS011;11412;50.802;4.350;2023-11-21T05:39:00;27.65;;;15.70;;
22490;SDS011;11412;50.802;4.350;2023-11-21T05:41:26;20.35;;;14.32;;
22490;SDS011;11412;50.802;4.350;2023-11-21T05:43:51;19.35;;;14.93;;
22490;SDS011;11412;50.802;4.350;2023-11-21T05:46:19;21.77;;;14.95;;
22490;SDS011;11412;50.802;4.350;2023-11-21T05:48:44;21.80;;;15.07;;
22490;SDS011;11412;50.802;4.350;2023-11-21T05:51:11;22.98;;;15.90;;
22490;SDS011;11412;50.802;4.350;2023-11-21T05:53:37;19.38;;;15.25;;
22490;SDS011;11412;50.802;4.350;2023-11-21T05:56:03;20.88;;;15.35;;
22490;SDS011;11412;50.802;4.350;2023-11-21T05:58:29;23.00;;;14.90;;
22490;SDS011;11412;50.802;4.350;2023-11-21T06:00:55;24.33;;;15.48;;
22490;SDS011;11412;50.802;4.350;2023-11-21T06:03:20;25.52;;;15.23;;
22490;SDS011;11412;50.802;4.350;2023-11-21T06:05:46;23.63;;;15.05;;
22490;SDS011;11412;50.802;4.350;2023-11-21T06:08:11;21.67;;;13.63;;
22490;SDS011;11412;50.802;4.350;2023-11-21T06:10:37;26.27;;;15.30;;
22490;SDS011;11412;50.802;4.350;2023-11-21T06:13:04;21.10;;;14.52;;
22490;SDS011;11412;50.802;4.350;2023-11-21T06:15:30;20.17;;;14.27;;
22490;SDS011;11412;50.802;4.350;2023-11-21T06:17:55;25.30;;;14.60;;
22490;SDS011;11412;50.802;4.350;2023-11-21T06:20:21;20.60;;;14.30;;
22490;SDS011;11412;50.802;4.350;2023-11-21T06:22:48;20.60;;;13.57;;
22490;SDS011;11412;50.802;4.350;2023-11-21T06:25:15;23.55;;;14.90;;
22490;SDS011;11412;50.802;4.350;2023-11-21T06:27:42;23.85;;;15.50;;
22490;SDS011;11412;50.802;4.350;2023-11-21T06:30:10;27.23;;;14.70;;
22490;SDS011;11412;50.802;4.350;2023-11-21T06:32:37;19.33;;;13.82;;
22490;SDS011;11412;50.802;4.350;2023-11-21T06:35:04;17.85;;;13.32;;
22490;SDS011;11412;50.802;4.350;2023-11-21T06:37:31;26.00;;;14.93;;
22490;SDS011;11412;50.802;4.350;2023-11-21T06:39:57;23.92;;;15.07;;
22490;SDS011;11412;50.802;4.350;2023-11-21T06:42:24;24.08;;;15.27;;
22490;SDS011;11412;50.802;4.350;2023-11-21T06:44:50;23.85;;;14.82;;
22490;SDS011;11412;50.802;4.350;2023-11-21T06:47:19;20.70;;;14.32;;
22490;SDS011;11412;50.802;4.350;2023-11-21T06:49:45;24.60;;;15.70;;
22490;SDS011;11412;50.802;4.350;2023-11-21T06:52:14;24.17;;;14.65;;
22490;SDS011;11412;50.802;4.350;2023-11-21T06:54:40;22.85;;;15.32;;
22490;SDS011;11412;50.802;4.350;2023-11-21T06:57:06;22.08;;;15.10;;
22490;SDS011;11412;50.802;4.350;2023-11-21T06:59:32;25.60;;;14.30;;
22490;SDS011;11412;50.802;4.350;2023-11-21T07:01:58;21.15;;;14.90;;
22490;SDS011;11412;50.802;4.350;2023-11-21T07:04:24;20.48;;;14.32;;
22490;SDS011;11412;50.802;4.350;2023-11-21T07:06:51;23.35;;;15.23;;
22490;SDS011;11412;50.802;4.350;2023-11-21T07:09:18;20.52;;;15.13;;
22490;SDS011;11412;50.802;4.350;2023-11-21T07:11:47;19.33;;;13.98;;
22490;SDS011;11412;50.802;4.350;2023-11-21T07:14:13;20.05;;;14.95;;
22490;SDS011;11412;50.802;4.350;2023-11-21T07:16:40;23.15;;;15.23;;
22490;SDS011;11412;50.802;4.350;2023-11-21T07:19:13;19.77;;;16.30;;
22490;SDS011;11412;50.802;4.350;2023-11-21T07:21:40;22.55;;;16.40;;
22490;SDS011;11412;50.802;4.350;2023-11-21T07:24:06;21.88;;;15.70;;
22490;SDS011;11412;50.802;4.350;2023-11-21T07:26:33;21.98;;;16.50;;
22490;SDS011;11412;50.802;4.350;2023-11-21T07:28:59;22.30;;;15.98;;
22490;SDS011;11412;50.802;4.350;2023-11-21T07:31:25;21.92;;;16.63;;
22490;SDS011;11412;50.802;4.350;2023-11-21T07:33:51;26.00;;;15.77;;
22490;SDS011;11412;50.802;4.350;2023-11-21T07:36:17;24.23;;;15.85;;
22490;SDS011;11412;50.802;4.350;2023-11-21T07:38:45;25.90;;;15.60;;
22490;SDS011;11412;50.802;4.350;2023-11-21T07:41:11;25.75;;;16.85;;
22490;SDS011;11412;50.802;4.350;2023-11-21T07:43:40;25.63;;;16.30;;
22490;SDS011;11412;50.802;4.350;2023-11-21T07:46:07;28.67;;;17.15;;
22490;SDS011;11412;50.802;4.350;2023-11-21T07:48:33;24.95;;;16.25;;
22490;SDS011;11412;50.802;4.350;2023-11-21T07:51:00;29.65;;;17.70;;
22490;SDS011;11412;50.802;4.350;2023-11-21T07:53:27;23.50;;;16.95;;
22490;SDS011;11412;50.802;4.350;2023-11-21T07:55:55;33.92;;;17.50;;
22490;SDS011;11412;50.802;4.350;2023-11-21T07:58:21;28.83;;;17.55;;
22490;SDS011;11412;50.802;4.350;2023-11-21T08:00:47;29.33;;;16.80;;
22490;SDS011;11412;50.802;4.350;2023-11-21T08:03:16;25.88;;;16.83;;
22490;SDS011;11412;50.802;4.350;2023-11-21T08:05:42;30.45;;;18.52;;
22490;SDS011;11412;50.802;4.350;2023-11-21T08:08:08;28.33;;;17.00;;
22490;SDS011;11412;50.802;4.350;2023-11-21T08:10:34;28.55;;;15.73;;
22490;SDS011;11412;50.802;4.350;2023-11-21T08:13:01;29.02;;;16.50;;
22490;SDS011;11412;50.802;4.350;2023-11-21T08:15:27;29.67;;;17.35;;
22490;SDS011;11412;50.802;4.350;2023-11-21T08:17:53;31.90;;;17.60;;
22490;SDS011;11412;50.802;4.350;2023-11-21T08:20:18;35.67;;;19.52;;
22490;SDS011;11412;50.802;4.350;2023-11-21T08:22:44;34.03;;;18.83;;
22490;SDS011;11412;50.802;4.350;2023-11-21T08:25:10;35.47;;;18.73;;
22490;SDS011;11412;50.802;4.350;2023-11-21T08:27:36;30.70;;;17.83;;
22490;SDS011;11412;50.802;4.350;2023-11-21T08:30:03;31.02;;;16.65;;
22490;SDS011;11412;50.802;4.350;2023-11-21T08:32:29;34.38;;;19.00;;
22490;SDS011;11412;50.802;4.350;2023-11-21T08:34:57;30.90;;;19.08;;
22490;SDS011;11412;50.802;4.350;2023-11-21T08:37:23;36.45;;;18.08;;
22490;SDS011;11412;50.802;4.350;2023-11-21T08:39:49;37.22;;;18.88;;
22490;SDS011;11412;50.802;4.350;2023-11-21T08:42:15;39.25;;;18.25;;
22490;SDS011;11412;50.802;4.350;2023-11-21T08:44:40;34.05;;;18.42;;
22490;SDS011;11412;50.802;4.350;2023-11-21T08:47:06;34.20;;;18.13;;
22490;SDS011;11412;50.802;4.350;2023-11-21T08:49:32;39.83;;;19.38;;
22490;SDS011;11412;50.802;4.350;2023-11-21T08:51:58;40.63;;;19.38;;
22490;SDS011;11412;50.802;4.350;2023-11-21T08:54:27;32.65;;;19.23;;
22490;SDS011;11412;50.802;4.350;2023-11-21T08:56:53;30.23;;;18.60;;
22490;SDS011;11412;50.802;4.350;2023-11-21T08:59:20;37.33;;;19.60;;
22490;SDS011;11412;50.802;4.350;2023-11-21T09:01:46;38.72;;;18.80;;
22490;SDS011;11412;50.802;4.350;2023-11-21T09:04:12;37.20;;;21.13;;
22490;SDS011;11412;50.802;4.350;2023-11-21T09:06:39;46.83;;;20.00;;
22490;SDS011;11412;50.802;4.350;2023-11-21T09:09:05;41.95;;;21.20;;
22490;SDS011;11412;50.802;4.350;2023-11-21T09:11:31;37.50;;;19.20;;
22490;SDS011;11412;50.802;4.350;2023-11-21T09:13:59;40.30;;;19.98;;
22490;SDS011;11412;50.802;4.350;2023-11-21T09:16:25;41.20;;;20.73;;
22490;SDS011;11412;50.802;4.350;2023-11-21T09:18:51;38.22;;;19.45;;
22490;SDS011;11412;50.802;4.350;2023-11-21T09:21:17;42.70;;;20.70;;
22490;SDS011;11412;50.802;4.350;2023-11-21T09:23:45;41.03;;;20.65;;
22490;SDS011;11412;50.802;4.350;2023-11-21T09:26:12;43.75;;;20.25;;
22490;SDS011;11412;50.802;4.350;2023-11-21T09:28:37;40.95;;;20.38;;
22490;SDS011;11412;50.802;4.350;2023-11-21T09:31:04;45.13;;;21.42;;
22490;SDS011;11412;50.802;4.350;2023-11-21T09:33:34;35.42;;;19.88;;
22490;SDS011;11412;50.802;4.350;2023-11-21T09:35:59;40.90;;;20.23;;
22490;SDS011;11412;50.802;4.350;2023-11-21T09:38:26;43.13;;;19.92;;
22490;SDS011;11412;50.802;4.350;2023-11-21T09:40:53;42.40;;;20.63;;
22490;SDS011;11412;50.802;4.350;2023-11-21T09:43:20;38.15;;;21.02;;
22490;SDS011;11412;50.802;4.350;2023-11-21T09:45:48;36.97;;;20.83;;
22490;SDS011;11412;50.802;4.350;2023-11-21T09:48:19;41.95;;;19.92;;
22490;SDS011;11412;50.802;4.350;2023-11-21T09:50:46;37.03;;;20.20;;
22490;SDS011;11412;50.802;4.350;2023-11-21T09:53:13;33.90;;;19.10;;
22490;SDS011;11412;50.802;4.350;2023-11-21T09:55:49;38.33;;;18.08;;
22490;SDS011;11412;50.802;4.350;2023-11-21T09:58:17;38.45;;;20.10;;
22490;SDS011;11412;50.802;4.350;2023-11-21T10:00:47;42.47;;;20.40;;
22490;SDS011;11412;50.802;4.350;2023-11-21T10:03:14;41.97;;;20.40;;
22490;SDS011;11412;50.802;4.350;2023-11-21T10:05:42;40.92;;;21.15;;
22490;SDS011;11412;50.802;4.350;2023-11-21T10:08:08;42.45;;;21.02;;
22490;SDS011;11412;50.802;4.350;2023-11-21T10:10:35;36.05;;;20.10;;
22490;SDS011;11412;50.802;4.350;2023-11-21T10:13:06;41.53;;;21.42;;
22490;SDS011;11412;50.802;4.350;2023-11-21T10:15:35;39.60;;;20.02;;
22490;SDS011;11412;50.802;4.350;2023-11-21T10:18:02;36.70;;;20.00;;
22490;SDS011;11412;50.802;4.350;2023-11-21T10:20:30;42.58;;;20.90;;
22490;SDS011;11412;50.802;4.350;2023-11-21T10:22:56;38.85;;;20.98;;
22490;SDS011;11412;50.802;4.350;2023-11-21T10:25:22;39.10;;;20.15;;
22490;SDS011;11412;50.802;4.350;2023-11-21T10:27:48;35.67;;;19.92;;
22490;SDS011;11412;50.802;4.350;2023-11-21T10:30:17;35.75;;;19.55;;
22490;SDS011;11412;50.802;4.350;2023-11-21T10:32:43;31.08;;;17.40;;
22490;SDS011;11412;50.802;4.350;2023-11-21T10:35:09;30.27;;;16.00;;
22490;SDS011;11412;50.802;4.350;2023-11-21T10:37:36;26.80;;;16.23;;
22490;SDS011;11412;50.802;4.350;2023-11-21T10:40:08;26.90;;;15.18;;
22490;SDS011;11412;50.802;4.350;2023-11-21T10:42:38;19.80;;;14.15;;
22490;SDS011;11412;50.802;4.350;2023-11-21T10:45:05;20.27;;;13.95;;
22490;SDS011;11412;50.802;4.350;2023-11-21T10:47:37;22.63;;;13.88;;
22490;SDS011;11412;50.802;4.350;2023-11-21T10:50:05;21.52;;;13.35;;
22490;SDS011;11412;50.802;4.350;2023-11-21T10:52:30;22.08;;;14.40;;
22490;SDS011;11412;50.802;4.350;2023-11-21T10:54:56;14.70;;;12.10;;
22490;SDS011;11412;50.802;4.350;2023-11-21T10:57:24;20.05;;;13.65;;
22490;SDS011;11412;50.802;4.350;2023-11-21T10:59:50;20.60;;;14.20;;
22490;SDS011;11412;50.802;4.350;2023-11-21T11:02:25;21.88;;;14.60;;
22490;SDS011;11412;50.802;4.350;2023-11-21T11:04:53;21.35;;;14.93;;
22490;SDS011;11412;50.802;4.350;2023-11-21T11:07:21;19.83;;;12.98;;
22490;SDS011;11412;50.802;4.350;2023-11-21T11:09:51;24.73;;;15.25;;
22490;SDS011;11412;50.802;4.350;2023-11-21T11:12:18;22.27;;;15.25;;
22490;SDS011;11412;50.802;4.350;2023-11-21T11:14:44;20.70;;;14.60;;
22490;SDS011;11412;50.802;4.350;2023-11-21T11:17:10;20.65;;;15.05;;
22490;SDS011;11412;50.802;4.350;2023-11-21T11:19:36;22.05;;;15.68;;
22490;SDS011;11412;50.802;4.350;2023-11-21T11:25:21;23.73;;;15.45;;
22490;SDS011;11412;50.802;4.350;2023-11-21T11:28:15;25.70;;;16.00;;
22490;SDS011;11412;50.802;4.350;2023-11-21T11:38:33;23.75;;;17.15;;
22490;SDS011;11412;50.802;4.350;2023-11-21T11:41:04;25.00;;;16.58;;
22490;SDS011;11412;50.802;4.350;2023-11-21T11:43:32;25.73;;;18.02;;
22490;SDS011;11412;50.802;4.350;2023-11-21T11:45:59;32.90;;;19.25;;
22490;SDS011;11412;50.802;4.350;2023-11-21T11:48:28;31.33;;;19.50;;
22490;SDS011;11412;50.802;4.350;2023-11-21T11:51:01;24.80;;;18.35;;
22490;SDS011;11412;50.802;4.350;2023-11-21T11:53:46;30.52;;;19.65;;
22490;SDS011;11412;50.802;4.350;2023-11-21T11:59:23;27.70;;;18.33;;
22490;SDS011;11412;50.802;4.350;2023-11-21T12:01:49;22.67;;;16.25;;
22490;SDS011;11412;50.802;4.350;2023-11-21T12:06:48;22.88;;;17.05;;
22490;SDS011;11412;50.802;4.350;2023-11-21T12:09:19;19.60;;;16.10;;
22490;SDS011;11412;50.802;4.350;2023-11-21T12:11:46;20.38;;;15.07;;
22490;SDS011;11412;50.802;4.350;2023-11-21T12:14:14;22.08;;;15.45;;
22490;SDS011;11412;50.802;4.350;2023-11-21T12:16:40;21.13;;;13.45;;
22490;SDS011;11412;50.802;4.350;2023-11-21T12:19:08;16.27;;;12.63;;
22490;SDS011;11412;50.802;4.350;2023-11-21T12:21:34;13.05;;;11.02;;
22490;SDS011;11412;50.802;4.350;2023-11-21T12:24:01;15.38;;;11.45;;
22490;SDS011;11412;50.802;4.350;2023-11-21T12:26:26;14.07;;;11.15;;
22490;SDS011;11412;50.802;4.350;2023-11-21T12:28:55;13.82;;;10.23;;
22490;SDS011;11412;50.802;4.350;2023-11-21T12:31:21;12.75;;;10.32;;
22490;SDS011;11412;50.802;4.350;2023-11-21T12:33:47;16.20;;;11.23;;
22490;SDS011;11412;50.802;4.350;2023-11-21T12:36:13;14.35;;;11.05;;
22490;SDS011;11412;50.802;4.350;2023-11-21T12:38:39;12.75;;;11.00;;
22490;SDS011;11412;50.802;4.350;2023-11-21T12:41:05;11.68;;;10.48;;
22490;SDS011;11412;50.802;4.350;2023-11-21T12:43:31;16.60;;;10.90;;
22490;SDS011;11412;50.802;4.350;2023-11-21T12:46:07;13.55;;;11.02;;
22490;SDS011;11412;50.802;4.350;2023-11-21T12:48:36;16.75;;;11.18;;
22490;SDS011;11412;50.802;4.350;2023-11-21T12:51:05;17.48;;;10.15;;
22490;SDS011;11412;50.802;4.350;2023-11-21T12:53:31;11.88;;;10.07;;
22490;SDS011;11412;50.802;4.350;2023-11-21T12:56:02;12.75;;;9.77;;
22490;SDS011;11412;50.802;4.350;2023-11-21T12:58:31;11.63;;;8.85;;
22490;SDS011;11412;50.802;4.350;2023-11-21T13:00:58;13.88;;;9.02;;
22490;SDS011;11412;50.802;4.350;2023-11-21T13:03:24;14.82;;;8.95;;
22490;SDS011;11412;50.802;4.350;2023-11-21T13:05:51;8.52;;;7.55;;
22490;SDS011;11412;50.802;4.350;2023-11-21T13:08:22;10.27;;;7.95;;
22490;SDS011;11412;50.802;4.350;2023-11-21T13:10:50;11.38;;;8.15;;
22490;SDS011;11412;50.802;4.350;2023-11-21T13:13:19;10.20;;;7.95;;
22490;SDS011;11412;50.802;4.350;2023-11-21T13:15:49;13.35;;;8.40;;
22490;SDS011;11412;50.802;4.350;2023-11-21T13:18:15;11.52;;;8.18;;
22490;SDS011;11412;50.802;4.350;2023-11-21T13:20:42;11.60;;;8.30;;
22490;SDS011;11412;50.802;4.350;2023-11-21T13:23:08;11.40;;;9.05;;
22490;SDS011;11412;50.802;4.350;2023-11-21T13:25:39;11.02;;;9.57;;
22490;SDS011;11412;50.802;4.350;2023-11-21T13:28:10;10.15;;;9.20;;
22490;SDS011;11412;50.802;4.350;2023-11-21T13:30:36;10.25;;;9.05;;
22490;SDS011;11412;50.802;4.350;2023-11-21T13:33:04;12.20;;;9.23;;
22490;SDS011;11412;50.802;4.350;2023-11-21T13:35:33;12.48;;;10.35;;
22490;SDS011;11412;50.802;4.350;2023-11-21T13:38:06;10.77;;;9.68;;
22490;SDS011;11412;50.802;4.350;2023-11-21T13:40:40;12.88;;;8.48;;
22490;SDS011;11412;50.802;4.350;2023-11-21T13:43:15;12.43;;;9.48;;
22490;SDS011;11412;50.802;4.350;2023-11-21T13:45:46;11.27;;;9.38;;
22490;SDS011;11412;50.802;4.350;2023-11-21T13:48:15;11.57;;;9.43;;
22490;SDS011;11412;50.802;4.350;2023-11-21T13:50:44;13.10;;;9.48;;
22490;SDS011;11412;50.802;4.350;2023-11-21T13:53:20;10.73;;;9.52;;
22490;SDS011;11412;50.802;4.350;2023-11-21T13:55:49;12.85;;;10.10;;
22490;SDS011;11412;50.802;4.350;2023-11-21T13:58:25;12.88;;;10.05;;
22490;SDS011;11412;50.802;4.350;2023-11-21T14:01:09;13.00;;;10.63;;
22490;SDS011;11412;50.802;4.350;2023-11-21T14:03:54;11.50;;;9.85;;
22490;SDS011;11412;50.802;4.350;2023-11-21T14:06:26;13.60;;;9.80;;
22490;SDS011;11412;50.802;4.350;2023-11-21T14:08:59;11.63;;;8.65;;
22490;SDS011;11412;50.802;4.350;2023-11-21T14:11:30;8.65;;;7.88;;
22490;SDS011;11412;50.802;4.350;2023-11-21T14:13:56;7.35;;;6.70;;
22490;SDS011;11412;50.802;4.350;2023-11-21T14:16:24;6.57;;;5.97;;
22490;SDS011;11412;50.802;4.350;2023-11-21T14:18:50;8.18;;;6.88;;
22490;SDS011;11412;50.802;4.350;2023-11-21T14:21:26;9.10;;;6.57;;
22490;SDS011;11412;50.802;4.350;2023-11-21T14:23:52;7.40;;;6.65;;
22490;SDS011;11412;50.802;4.350;2023-11-21T14:26:20;8.85;;;6.80;;
22490;SDS011;11412;50.802;4.350;2023-11-21T14:28:46;6.82;;;6.13;;
22490;SDS011;11412;50.802;4.350;2023-11-21T14:31:14;6.28;;;5.68;;
22490;SDS011;11412;50.802;4.350;2023-11-21T14:33:42;9.50;;;5.35;;
22490;SDS011;11412;50.802;4.350;2023-11-21T14:36:09;6.68;;;4.63;;
22490;SDS011;11412;50.802;4.350;2023-11-21T14:38:38;4.10;;;3.80;;
22490;SDS011;11412;50.802;4.350;2023-11-21T14:41:04;4.93;;;4.22;;
22490;SDS011;11412;50.802;4.350;2023-11-21T14:43:33;4.75;;;4.22;;